Time;durP1;ratioP1;P1;durP2;ratioP2;P2;SDS_P1;SDS_P2;PMS_P1;PMS_P2;Temp;Humidity;BMP_temperature;BMP_pressure;BME280_temperature;BME280_humidity;BME280_pressure;Samples;Min_cycle;Max_cycle;Signal;HPM_P1;HPM_P2
2023/04/20 00:00:29;;;;;;;35.50;33.60;;;;;;;3.20;78.70;98340.88;4992445;28;20025;-76
2023/04/20 00:02:55;;;;;;;35.95;33.80;;;;;;;2.96;79.14;98341.34;4987337;28;20049;-75
2023/04/20 00:05:22;;;;;;;36.20;34.13;;;;;;;3.07;79.32;98341.63;5005576;28;20141;-75
2023/04/20 00:07:48;;;;;;;35.63;33.40;;;;;;;3.17;78.74;98336.81;4993971;28;20033;-76
2023/04/20 00:10:14;;;;;;;38.80;36.50;;;;;;;3.25;78.60;98346.47;5024856;28;20387;-75
2023/04/20 00:12:41;;;;;;;36.72;34.63;;;;;;;3.31;78.33;98335.84;5003262;28;20041;-76
2023/04/20 00:15:07;;;;;;;36.20;34.00;;;;;;;2.89;79.25;98321.84;5020855;28;20025;-76
2023/04/20 00:17:34;;;;;;;34.83;32.65;;;;;;;2.86;78.53;98322.22;4993672;28;20033;-75
2023/04/20 00:20:02;;;;;;;34.72;32.42;;;;;;;2.97;79.10;98324.34;5008851;28;20450;-76
2023/04/20 00:22:29;;;;;;;34.03;32.13;;;;;;;2.82;78.29;98318.31;5003364;28;20063;-76
2023/04/20 00:24:55;;;;;;;36.40;34.10;;;;;;;2.63;79.84;98323.28;5016047;28;20075;-75
2023/04/20 00:27:21;;;;;;;41.85;39.22;;;;;;;2.71;81.38;98299.19;5027097;28;20543;-76
2023/04/20 00:29:48;;;;;;;45.97;43.38;;;;;;;2.80;80.61;98292.72;4992447;28;20449;-77
2023/04/20 00:32:14;;;;;;;46.75;44.05;;;;;;;2.95;80.48;98292.63;4986760;28;20033;-75
2023/04/20 00:34:40;;;;;;;41.85;39.47;;;;;;;3.04;79.88;98295.97;5019998;28;20034;-74
2023/04/20 00:37:08;;;;;;;45.45;42.95;;;;;;;3.03;79.98;98291.69;5009833;28;20395;-76
2023/04/20 00:39:33;;;;;;;46.45;43.95;;;;;;;2.83;81.25;98311.97;4993159;28;20533;-77
2023/04/20 00:42:07;;;;;;;55.65;52.60;;;;;;;2.52;82.93;98307.81;5078946;22;20518;-76
2023/04/20 00:44:33;;;;;;;54.40;51.42;;;;;;;2.55;82.40;98303.97;5012870;28;20042;-75
2023/04/20 00:46:59;;;;;;;58.67;55.38;;;;;;;2.62;82.21;98311.00;4980652;28;20029;-76
2023/04/20 00:49:29;;;;;;;56.28;53.22;;;;;;;2.98;81.15;98299.41;4996141;28;20173;-77
2023/04/20 00:51:56;;;;;;;57.13;53.80;;;;;;;3.00;80.97;98286.75;4968165;28;20064;-77
2023/04/20 00:54:23;;;;;;;52.33;49.42;;;;;;;3.20;81.31;98298.31;4967302;28;20129;-76
2023/04/20 00:56:49;;;;;;;48.88;46.08;;;;;;;3.43;79.60;98288.25;4988459;28;20117;-76
2023/04/20 00:59:15;;;;;;;45.78;43.28;;;;;;;3.55;79.47;98275.19;4989546;28;20099;-76
2023/04/20 01:01:41;;;;;;;42.85;40.30;;;;;;;3.54;79.12;98274.38;5000213;28;20468;-74
2023/04/20 01:04:07;;;;;;;44.70;41.95;;;;;;;3.67;79.29;98277.06;4978281;28;20479;-75
2023/04/20 01:06:33;;;;;;;42.08;39.50;;;;;;;3.66;79.24;98272.78;4983346;28;20021;-76
2023/04/20 01:08:59;;;;;;;42.53;39.78;;;;;;;3.61;79.40;98275.22;5010354;28;20030;-76
2023/04/20 01:11:27;;;;;;;45.30;42.63;;;;;;;3.29;79.63;98255.41;4987573;28;20372;-76
2023/04/20 01:13:58;;;;;;;49.60;46.50;;;;;;;3.45;79.73;98276.34;4975061;28;20044;-77
2023/04/20 01:16:23;;;;;;;45.88;42.97;;;;;;;3.31;79.75;98241.91;4987020;28;20041;-76
2023/04/20 01:28:19;;;;;;;51.00;47.90;;;;;;;3.36;80.35;98258.13;4993185;28;20054;-75
2023/04/20 01:30:44;;;;;;;49.60;46.55;;;;;;;3.46;80.15;98261.22;4992240;28;20030;-75
2023/04/20 01:33:10;;;;;;;49.65;46.55;;;;;;;3.44;80.24;98257.94;4976564;28;20030;-75
2023/04/20 01:35:35;;;;;;;46.58;43.72;;;;;;;3.27;80.98;98251.28;4993602;28;20625;-74
2023/04/20 01:38:01;;;;;;;49.33;46.42;;;;;;;3.25;81.07;98248.00;4991740;28;20034;-75
2023/04/20 01:40:26;;;;;;;46.90;44.17;;;;;;;3.07;82.15;98245.03;4991784;28;20061;-74
2023/04/20 01:42:51;;;;;;;55.47;52.47;;;;;;;3.10;81.87;98234.03;4991383;28;20026;-75
2023/04/20 01:45:17;;;;;;;50.30;47.28;;;;;;;3.20;81.72;98234.47;4975162;28;20040;-74
2023/04/20 01:47:45;;;;;;;54.90;51.72;;;;;;;3.32;81.38;98240.88;4991650;28;20384;-73
2023/04/20 01:50:11;;;;;;;49.00;46.13;;;;;;;3.53;80.61;98222.13;4978970;28;20041;-75
2023/04/20 01:52:36;;;;;;;49.58;46.78;;;;;;;3.55;80.55;98232.59;4991596;28;20472;-75
2023/04/20 01:55:01;;;;;;;48.10;45.20;;;;;;;3.61;80.70;98232.63;4992582;28;20038;-75
2023/04/20 01:57:27;;;;;;;45.90;43.20;;;;;;;3.67;79.62;98225.66;4991808;28;20030;-75
2023/04/20 01:59:52;;;;;;;44.03;41.15;;;;;;;3.71;80.08;98233.03;4985763;28;20034;-75
2023/04/20 02:02:18;;;;;;;47.80;44.78;;;;;;;3.70;79.78;98228.75;5104781;23;20044;-75
2023/04/20 02:04:43;;;;;;;46.55;43.72;;;;;;;3.67;80.16;98223.00;5011491;28;20072;-75
2023/04/20 02:07:08;;;;;;;47.65;44.60;;;;;;;3.70;80.21;98220.78;4995183;28;20022;-75
2023/04/20 02:09:37;;;;;;;46.47;43.65;;;;;;;3.58;80.80;98217.03;5010948;28;20030;-75
2023/04/20 02:12:02;;;;;;;45.38;42.72;;;;;;;3.74;80.13;98216.69;5027210;28;20037;-75
2023/04/20 02:14:28;;;;;;;49.00;46.28;;;;;;;3.53;80.83;98214.16;5012175;28;20116;-76
2023/04/20 02:16:53;;;;;;;44.28;41.58;;;;;;;3.76;80.08;98219.13;5007552;28;20129;-76
2023/04/20 02:19:20;;;;;;;43.63;40.95;;;;;;;3.77;80.13;98213.63;5010585;28;20041;-75
2023/04/20 02:21:45;;;;;;;43.97;41.22;;;;;;;3.76;80.11;98219.97;4994510;28;20634;-75
2023/04/20 02:24:10;;;;;;;43.97;41.33;;;;;;;3.75;80.38;98218.34;4994260;28;20064;-75
2023/04/20 02:26:36;;;;;;;45.22;42.53;;;;;;;3.76;80.66;98225.28;4975055;28;20057;-76
2023/04/20 02:29:01;;;;;;;40.70;38.30;;;;;;;3.85;79.75;98224.06;5011022;28;20037;-76
2023/04/20 02:36:43;;;;;;;42.17;39.47;;;;;;;4.00;79.47;98234.56;4991323;28;20053;-75
2023/04/20 02:39:11;;;;;;;39.17;36.58;;;;;;;3.90;79.79;98216.31;4991398;28;20034;-76
2023/04/20 02:41:36;;;;;;;40.47;37.78;;;;;;;3.92;79.70;98221.44;4979190;28;20384;-76
2023/04/20 02:44:02;;;;;;;40.17;37.53;;;;;;;4.07;79.63;98222.09;4985845;28;20190;-76
2023/04/20 02:46:28;;;;;;;39.50;37.08;;;;;;;4.13;79.42;98216.75;4993852;28;20030;-75
2023/04/20 02:48:54;;;;;;;36.03;33.83;;;;;;;4.06;79.86;98221.25;5001434;28;20031;-75
2023/04/20 02:51:20;;;;;;;36.50;34.20;;;;;;;4.20;79.13;98216.78;4991019;28;20493;-74
2023/04/20 02:53:45;;;;;;;37.97;35.60;;;;;;;4.06;79.55;98212.47;5010448;28;20117;-74
2023/04/20 02:56:18;;;;;;;41.03;38.20;;;;;;;4.08;79.20;98213.06;4982457;28;20036;-75
2023/04/20 02:58:50;;;;;;;40.72;38.03;;;;;;;4.03;79.53;98207.53;5010614;28;20495;-75
2023/04/20 03:01:27;;;;;;;40.05;37.60;;;;;;;3.80;79.74;98199.91;4983310;28;20046;-75
2023/04/20 03:04:01;;;;;;;41.83;39.05;;;;;;;3.77;80.16;98197.63;4993451;28;20560;-76
2023/04/20 03:06:27;;;;;;;45.22;42.53;;;;;;;3.57;80.39;98198.59;4988129;28;20038;-76
2023/04/20 03:08:55;;;;;;;48.92;45.95;;;;;;;3.61;81.16;98208.66;4989366;28;20373;-76
2023/04/20 03:12:05;;;;;;;49.88;46.90;;;;;;;3.49;81.14;98196.94;5025751;23;20428;-75
2023/04/20 03:15:07;;;;;;;46.45;43.65;;;;;;;3.44;80.63;98167.44;5011734;28;20107;-77
2023/04/20 03:17:58;;;;;;;45.97;43.17;;;;;;;3.28;81.71;98178.44;5017239;28;20403;-76
2023/04/20 03:20:24;;;;;;;47.10;44.28;;;;;;;3.48;81.30;98204.09;5036813;28;20033;-76
2023/04/20 03:22:53;;;;;;;50.67;47.47;;;;;;;3.36;81.30;98191.56;5025405;28;20028;-76
2023/04/20 03:25:22;;;;;;;44.83;42.22;;;;;;;3.61;80.30;98192.69;5043648;28;20398;-76
2023/04/20 03:28:05;;;;;;;41.85;39.10;;;;;;;3.47;80.65;98185.69;5028454;28;20120;-77
2023/04/20 03:30:30;;;;;;;44.42;41.67;;;;;;;3.50;80.24;98188.75;5023604;28;20122;-77
2023/04/20 03:33:01;;;;;;;44.67;41.95;;;;;;;3.63;80.15;98198.63;5026173;28;20021;-76
2023/04/20 03:35:27;;;;;;;42.25;39.63;;;;;;;3.66;79.22;98198.22;5031345;28;20032;-77
2023/04/20 03:37:53;;;;;;;38.60;36.00;;;;;;;3.48;80.30;98195.28;5029716;28;20139;-76
2023/04/20 03:40:18;;;;;;;41.20;38.70;;;;;;;3.47;80.34;98193.66;5023763;28;20033;-76
2023/04/20 03:42:44;;;;;;;41.92;39.47;;;;;;;3.42;80.78;98180.94;5041835;28;20025;-76
2023/04/20 03:45:10;;;;;;;35.38;33.25;;;;;;;3.56;79.08;98179.16;5033371;28;20099;-75
2023/04/20 03:47:36;;;;;;;39.35;36.63;;;;;;;3.50;79.86;98187.94;5012676;28;20049;-75
2023/04/20 03:50:01;;;;;;;36.08;33.47;;;;;;;3.45;79.56;98179.72;5024089;28;20060;-77
2023/04/20 03:52:26;;;;;;;33.90;31.60;;;;;;;3.59;78.34;98184.06;5025001;28;20067;-76
2023/04/20 03:54:52;;;;;;;34.83;32.42;;;;;;;3.52;79.35;98175.25;5035860;28;20371;-76
2023/04/20 03:57:18;;;;;;;34.75;32.55;;;;;;;3.65;78.31;98190.44;5043792;28;20494;-77
2023/04/20 03:59:44;;;;;;;37.45;34.85;;;;;;;3.55;78.88;98174.81;5047192;28;20029;-76
2023/04/20 04:02:14;;;;;;;39.60;37.03;;;;;;;3.56;78.77;98171.16;5028729;28;20032;-77
2023/04/20 04:04:42;;;;;;;38.70;36.25;;;;;;;3.42;80.02;98177.47;5022295;28;20391;-76
2023/04/20 04:07:07;;;;;;;40.10;37.67;;;;;;;3.50;79.37;98164.00;5024379;28;20030;-76
2023/04/20 04:09:32;;;;;;;39.38;36.78;;;;;;;3.43;79.43;98168.47;5047349;28;20033;-75
2023/04/20 04:11:58;;;;;;;34.42;32.03;;;;;;;3.51;78.71;98170.94;5027740;28;20482;-76
2023/04/20 04:14:27;;;;;;;34.70;32.60;;;;;;;3.67;78.32;98167.91;5034107;28;20041;-76
2023/04/20 04:16:53;;;;;;;44.03;40.50;;;;;;;3.58;78.40;98169.13;5016595;28;20029;-76
2023/04/20 04:19:19;;;;;;;32.33;30.08;;;;;;;3.23;79.52;98170.22;5029131;28;20450;-78
2023/04/20 04:21:44;;;;;;;31.63;29.65;;;;;;;3.37;79.24;98175.41;5027561;28;20489;-76
2023/04/20 04:24:10;;;;;;;34.55;32.25;;;;;;;3.41;78.98;98165.16;5022264;28;20522;-77
2023/04/20 04:26:48;;;;;;;36.10;33.80;;;;;;;3.30;79.13;98168.41;5024253;28;20029;-76
2023/04/20 04:29:15;;;;;;;38.40;35.92;;;;;;;3.12;79.98;98162.81;5045394;28;20120;-76
2023/04/20 04:31:41;;;;;;;38.30;36.10;;;;;;;3.11;79.30;98161.16;5006382;28;20112;-76
2023/04/20 04:34:12;;;;;;;38.35;36.05;;;;;;;3.06;79.25;98171.56;5044309;28;20044;-77
2023/04/20 04:36:43;;;;;;;41.47;38.78;;;;;;;3.28;79.46;98178.44;5045567;28;20052;-77
2023/04/20 04:39:12;;;;;;;43.00;40.40;;;;;;;3.34;78.60;98180.28;5024695;28;20502;-77
2023/04/20 04:41:44;;;;;;;45.28;42.38;;;;;;;3.18;79.09;98177.97;5022755;28;20094;-77
2023/04/20 04:44:32;;;;;;;48.15;44.85;;;;;;;3.09;79.91;98185.31;5034961;28;20037;-77
2023/04/20 04:47:01;;;;;;;48.17;45.17;;;;;;;3.16;79.99;98185.31;5010599;28;20052;-76
2023/04/20 04:49:28;;;;;;;44.08;40.97;;;;;;;3.28;78.98;98181.09;5034646;28;20055;-77
2023/04/20 04:51:53;;;;;;;42.13;39.40;;;;;;;3.03;79.80;98171.97;5023085;28;20108;-77
2023/04/20 04:54:18;;;;;;;47.28;44.28;;;;;;;3.25;79.31;98168.16;5021978;28;20161;-78
2023/04/20 04:56:44;;;;;;;43.33;40.38;;;;;;;3.40;79.40;98174.19;5045709;28;20095;-77
2023/04/20 04:59:09;;;;;;;41.95;39.35;;;;;;;3.40;78.85;98168.84;5046463;28;20060;-76
2023/04/20 05:01:35;;;;;;;45.22;42.47;;;;;;;3.39;79.41;98172.53;5039027;28;20045;-77
2023/04/20 05:04:00;;;;;;;42.00;39.30;;;;;;;3.60;78.16;98188.38;5021038;28;20025;-76
2023/04/20 05:06:26;;;;;;;43.25;40.28;;;;;;;2.95;80.34;98177.44;5022068;28;20033;-76
2023/04/20 05:08:51;;;;;;;64.30;59.95;;;;;;;2.85;80.01;98177.78;5034807;28;20471;-77
2023/04/20 05:11:16;;;;;;;60.13;56.38;;;;;;;2.91;81.42;98186.84;5038335;28;20056;-76
2023/04/20 05:13:42;;;;;;;60.83;57.05;;;;;;;3.30;79.98;98181.72;5037692;28;20060;-77
2023/04/20 05:16:07;;;;;;;49.95;46.72;;;;;;;3.45;79.45;98180.53;5015085;28;20033;-77
2023/04/20 05:18:32;;;;;;;42.22;39.63;;;;;;;3.92;77.63;98176.97;5028193;28;20116;-76
2023/04/20 05:20:58;;;;;;;39.75;37.17;;;;;;;3.62;78.56;98186.31;5037917;28;20040;-77
2023/04/20 05:23:24;;;;;;;41.42;38.58;;;;;;;3.84;77.97;98184.34;5038284;28;20445;-76
2023/04/20 05:25:49;;;;;;;54.88;50.42;;;;;;;3.89;77.98;98188.03;5037934;28;20498;-77
2023/04/20 05:28:15;;;;;;;63.03;57.53;;;;;;;3.79;78.78;98186.78;5039137;28;20025;-76
2023/04/20 05:30:40;;;;;;;38.92;36.42;;;;;;;3.93;77.59;98175.94;5027975;28;20399;-76
2023/04/20 05:33:05;;;;;;;44.38;41.30;;;;;;;3.65;79.13;98179.78;5032311;28;20033;-77
2023/04/20 05:35:31;;;;;;;39.45;36.67;;;;;;;3.57;79.46;98177.31;5037337;28;20041;-77
2023/04/20 05:37:59;;;;;;;44.50;41.35;;;;;;;3.68;78.89;98174.88;5021815;28;20418;-76
2023/04/20 05:40:24;;;;;;;41.22;38.05;;;;;;;3.73;78.79;98187.59;5044282;28;20108;-77
2023/04/20 05:42:50;;;;;;;36.72;34.08;;;;;;;3.61;78.73;98184.69;5045237;28;20675;-77
2023/04/20 05:45:16;;;;;;;42.60;39.28;;;;;;;3.84;78.70;98179.84;5032095;28;20108;-76
2023/04/20 05:47:41;;;;;;;30.48;28.20;;;;;;;3.79;77.98;98182.28;5043746;28;20383;-77
2023/04/20 05:50:09;;;;;;;31.27;28.98;;;;;;;4.07;77.58;98190.09;5031262;28;20072;-76
2023/04/20 05:52:34;;;;;;;32.38;30.08;;;;;;;4.53;77.17;98184.78;5030113;28;20456;-77
2023/04/20 05:55:00;;;;;;;29.90;27.92;;;;;;;4.60;75.79;98186.41;5027430;28;20068;-77
2023/04/20 05:57:25;;;;;;;25.58;23.67;;;;;;;4.59;75.47;98181.31;5027106;28;20422;-76
2023/04/20 05:59:50;;;;;;;21.35;19.85;;;;;;;5.02;73.80;98176.31;5038611;28;20082;-77
2023/04/20 06:02:16;;;;;;;19.38;17.63;;;;;;;4.87;74.67;98187.22;5039257;28;20147;-76
2023/04/20 06:04:41;;;;;;;19.13;17.58;;;;;;;4.85;74.97;98183.94;5045355;28;20033;-76
2023/04/20 06:07:06;;;;;;;21.48;19.88;;;;;;;5.45;73.87;98186.22;5046871;28;20024;-76
2023/04/20 06:09:32;;;;;;;17.73;16.25;;;;;;;5.51;72.63;98182.69;5042827;28;20079;-76
2023/04/20 06:11:59;;;;;;;17.75;16.38;;;;;;;5.37;73.16;98180.25;5032320;28;20032;-76
2023/04/20 06:14:24;;;;;;;16.75;15.25;;;;;;;5.69;72.59;98186.50;5046077;28;20037;-77
2023/04/20 06:16:49;;;;;;;16.13;14.73;;;;;;;5.60;72.56;98184.06;5044176;28;20075;-76
2023/04/20 06:19:15;;;;;;;14.80;13.60;;;;;;;5.37;71.72;98183.75;5032655;28;20037;-77
2023/04/20 06:21:40;;;;;;;13.73;12.63;;;;;;;5.14;72.62;98183.44;5043593;28;20025;-76
2023/04/20 06:24:06;;;;;;;14.80;13.38;;;;;;;5.19;73.18;98186.31;5020618;28;20029;-77
2023/04/20 06:26:31;;;;;;;13.95;12.60;;;;;;;5.10;73.30;98174.22;5022095;28;20454;-77
2023/04/20 06:28:57;;;;;;;15.05;13.75;;;;;;;5.22;73.01;98172.53;5018905;28;20119;-77
2023/04/20 06:31:22;;;;;;;13.55;12.35;;;;;;;5.22;73.01;98185.88;5038587;28;20049;-77
2023/04/20 06:33:47;;;;;;;14.13;12.93;;;;;;;5.40;73.19;98178.00;5043480;28;20045;-77
2023/04/20 06:36:13;;;;;;;14.60;13.23;;;;;;;5.26;72.82;98175.59;5042112;28;20108;-77
2023/04/20 06:38:39;;;;;;;14.30;13.20;;;;;;;5.44;71.74;98173.03;5037849;28;20540;-77
2023/04/20 06:41:04;;;;;;;11.90;10.80;;;;;;;5.43;71.47;98187.44;5038541;28;20021;-77
2023/04/20 06:43:30;;;;;;;11.63;10.65;;;;;;;5.70;70.95;98188.13;5027105;28;20503;-77
2023/04/20 06:45:55;;;;;;;12.32;11.23;;;;;;;5.73;71.17;98182.38;5002581;28;20446;-77
2023/04/20 06:48:21;;;;;;;11.43;10.43;;;;;;;5.44;70.41;98181.88;5042262;28;20547;-77
2023/04/20 06:50:48;;;;;;;12.80;11.57;;;;;;;5.91;71.51;98182.50;5025068;28;20104;-77
2023/04/20 06:53:13;;;;;;;11.25;10.25;;;;;;;5.78;69.53;98182.56;5036663;28;20399;-77
2023/04/20 06:55:38;;;;;;;11.80;10.60;;;;;;;6.02;69.93;98181.81;5022081;28;20029;-77
2023/04/20 06:58:04;;;;;;;10.80;9.80;;;;;;;5.95;68.49;98187.19;5043444;28;20083;-76
2023/04/20 07:00:30;;;;;;;10.20;9.30;;;;;;;6.67;66.88;98175.97;5025462;28;20063;-78
2023/04/20 07:02:56;;;;;;;10.60;9.48;;;;;;;6.22;66.90;98182.50;5020866;28;20044;-77
2023/04/20 07:05:21;;;;;;;10.32;9.30;;;;;;;6.20;66.52;98179.22;5024280;28;20029;-78
2023/04/20 07:07:46;;;;;;;11.70;8.85;;;;;;;6.07;66.98;98185.47;5047482;28;20057;-77
2023/04/20 07:10:13;;;;;;;9.60;8.70;;;;;;;6.17;65.98;98180.47;5017369;28;20163;-77
2023/04/20 07:12:39;;;;;;;10.23;9.23;;;;;;;6.44;65.38;98181.06;5038746;28;20029;-77
2023/04/20 07:15:06;;;;;;;10.50;9.50;;;;;;;6.78;65.89;98177.09;5025501;28;20368;-77
2023/04/20 07:17:32;;;;;;;9.82;8.90;;;;;;;6.82;66.00;98180.94;5030404;28;20112;-78
2023/04/20 07:20:04;;;;;;;9.73;8.82;;;;;;;7.22;64.55;98184.03;5029001;28;20562;-77
2023/04/20 07:22:30;;;;;;;9.18;8.38;;;;;;;6.65;65.02;98172.66;5040148;28;20143;-77
2023/04/20 07:24:56;;;;;;;11.52;8.55;;;;;;;7.41;64.67;98178.44;5007732;28;20056;-77
2023/04/20 07:27:21;;;;;;;9.80;8.80;;;;;;;7.30;65.22;98181.06;5047190;28;20041;-78
2023/04/20 07:29:46;;;;;;;8.73;7.93;;;;;;;7.17;63.97;98187.38;5030198;28;20032;-77
2023/04/20 07:32:12;;;;;;;8.60;7.82;;;;;;;6.98;63.79;98189.22;5040064;28;20445;-77
2023/04/20 07:34:37;;;;;;;9.75;7.97;;;;;;;7.10;63.73;98185.81;5040766;28;20356;-77
2023/04/20 07:37:02;;;;;;;9.60;8.60;;;;;;;7.25;65.18;98188.94;5046826;28;20065;-78
2023/04/20 07:39:29;;;;;;;12.30;8.77;;;;;;;7.18;63.92;98185.53;5045677;28;20479;-77
2023/04/20 07:41:55;;;;;;;8.95;8.02;;;;;;;7.57;62.02;98188.56;5047274;28;20041;-77
2023/04/20 07:44:21;;;;;;;9.10;8.02;;;;;;;7.49;64.26;98185.38;5027283;28;20029;-77
2023/04/20 07:46:48;;;;;;;8.95;8.10;;;;;;;7.52;60.01;98182.22;5022425;28;20044;-77
2023/04/20 07:49:13;;;;;;;9.35;7.82;;;;;;;7.93;61.09;98181.50;5024509;28;20029;-77
2023/04/20 07:51:39;;;;;;;8.20;7.50;;;;;;;7.72;61.11;98176.63;5047707;28;20041;-77
2023/04/20 07:54:04;;;;;;;7.88;7.05;;;;;;;8.24;60.93;98178.53;5045856;28;20066;-77
2023/04/20 07:56:30;;;;;;;8.90;7.35;;;;;;;8.60;61.88;98181.09;5023036;28;20569;-77
2023/04/20 07:58:56;;;;;;;7.47;6.60;;;;;;;8.69;58.65;98186.94;5024391;28;20514;-77
2023/04/20 08:01:25;;;;;;;7.10;6.40;;;;;;;8.73;59.58;98185.41;5029597;28;20065;-77
2023/04/20 08:03:51;;;;;;;8.07;6.75;;;;;;;8.95;57.60;98181.09;5046037;28;20074;-78
2023/04/20 08:06:16;;;;;;;7.55;6.75;;;;;;;9.13;57.78;98175.59;5022688;28;20036;-78
2023/04/20 08:08:42;;;;;;;8.52;6.68;;;;;;;9.09;57.97;98174.44;5040709;28;20387;-77
2023/04/20 08:11:07;;;;;;;11.55;6.90;;;;;;;9.35;57.73;98186.56;5045938;28;20064;-77
2023/04/20 08:13:33;;;;;;;8.80;7.05;;;;;;;9.05;57.23;98175.97;5044539;28;20059;-77
2023/04/20 08:15:58;;;;;;;7.80;6.97;;;;;;;9.27;57.74;98178.84;5038763;28;20029;-77
2023/04/20 08:18:24;;;;;;;7.82;7.00;;;;;;;9.47;57.76;98177.41;5041929;28;20109;-77
2023/04/20 08:20:50;;;;;;;7.63;6.80;;;;;;;9.37;56.94;98179.88;5045639;28;20029;-77
2023/04/20 08:23:15;;;;;;;8.25;6.50;;;;;;;9.34;54.71;98172.28;5033512;28;20439;-77
2023/04/20 08:25:41;;;;;;;7.10;6.40;;;;;;;9.25;54.02;98168.34;5046875;28;20041;-78
2023/04/20 08:28:06;;;;;;;7.18;6.32;;;;;;;9.33;55.06;98165.31;5027724;28;20024;-77
2023/04/20 08:30:32;;;;;;;7.13;6.32;;;;;;;9.54;54.67;98163.84;5022412;28;20120;-77
2023/04/20 08:32:58;;;;;;;8.27;7.28;;;;;;;9.35;55.27;98155.13;5023639;28;20128;-78
2023/04/20 08:35:23;;;;;;;7.30;6.60;;;;;;;9.51;54.63;98156.25;5037208;28;20051;-77
2023/04/20 08:37:49;;;;;;;7.40;6.50;;;;;;;9.63;53.83;98152.47;5040568;28;20462;-77
2023/04/20 08:40:16;;;;;;;8.10;7.10;;;;;;;9.30;53.16;98149.63;5016722;28;20104;-77
2023/04/20 08:42:41;;;;;;;7.90;6.80;;;;;;;9.39;53.72;98156.28;5043590;28;20422;-77
2023/04/20 08:45:07;;;;;;;7.70;6.60;;;;;;;9.34;53.46;98153.47;5033699;28;20091;-77
2023/04/20 08:47:34;;;;;;;8.43;6.50;;;;;;;9.64;52.54;98148.72;5044963;28;20025;-77
2023/04/20 08:50:02;;;;;;;8.07;6.88;;;;;;;9.98;52.78;98154.19;5038517;28;20098;-78
2023/04/20 08:52:28;;;;;;;7.15;6.45;;;;;;;9.79;54.35;98147.38;5039855;28;20487;-77
2023/04/20 08:54:53;;;;;;;6.93;6.20;;;;;;;9.79;52.94;98139.31;5045096;28;20055;-77
2023/04/20 08:57:18;;;;;;;7.32;6.63;;;;;;;9.74;52.99;98148.09;5043475;28;20032;-76
2023/04/20 08:59:44;;;;;;;10.45;6.82;;;;;;;9.65;53.44;98139.59;5021648;28;20487;-77
2023/04/20 09:02:10;;;;;;;9.43;6.50;;;;;;;9.67;51.96;98148.25;5041482;28;20029;-77
2023/04/20 09:04:36;;;;;;;6.88;6.18;;;;;;;9.57;52.50;98150.72;5045014;28;20037;-77
2023/04/20 09:07:01;;;;;;;6.93;6.22;;;;;;;9.53;51.82;98140.69;5043087;28;20087;-77
2023/04/20 09:09:27;;;;;;;7.15;5.80;;;;;;;9.86;52.08;98142.66;5038194;28;20112;-77
2023/04/20 09:12:19;;;;;;;6.07;5.50;;;;;;;10.11;50.47;98143.97;5051415;28;20099;-77
2023/04/20 09:14:45;;;;;;;8.43;6.40;;;;;;;10.21;50.96;98135.25;5020597;28;20421;-77
2023/04/20 09:17:13;;;;;;;6.93;6.22;;;;;;;10.54;49.16;98129.88;5038240;28;20060;-77
2023/04/20 09:19:39;;;;;;;6.65;5.93;;;;;;;10.78;48.95;98134.00;5026134;28;20033;-77
2023/04/20 09:22:05;;;;;;;6.40;5.80;;;;;;;11.13;48.52;98130.19;5031289;28;20601;-78
2023/04/20 09:24:38;;;;;;;8.40;5.90;;;;;;;11.15;46.97;98130.75;5022913;28;20036;-77
2023/04/20 09:27:16;;;;;;;6.47;5.78;;;;;;;11.41;47.02;98133.50;5001426;28;20045;-77
2023/04/20 09:29:42;;;;;;;6.32;5.60;;;;;;;11.44;46.66;98126.81;5014716;28;20112;-76
2023/04/20 09:32:07;;;;;;;8.18;5.53;;;;;;;11.84;45.35;98138.09;5044574;28;20108;-77
2023/04/20 09:34:45;;;;;;;6.47;5.45;;;;;;;11.32;48.06;98120.75;5042015;28;20233;-78
2023/04/20 09:37:13;;;;;;;8.00;5.90;;;;;;;11.47;47.23;98137.09;5039034;28;20036;-77
2023/04/20 09:39:44;;;;;;;6.30;5.53;;;;;;;12.00;44.94;98145.28;5037991;28;20036;-77
2023/04/20 09:42:14;;;;;;;6.32;5.72;;;;;;;11.64;45.39;98129.75;5037745;28;20399;-78
2023/04/20 09:44:39;;;;;;;6.30;5.70;;;;;;;12.19;46.02;98127.66;5037914;28;20092;-76
2023/04/20 09:47:06;;;;;;;6.80;6.03;;;;;;;12.58;48.02;98130.16;5026689;28;20033;-76
2023/04/20 09:49:32;;;;;;;7.47;6.10;;;;;;;12.36;45.58;98119.44;5045337;28;20111;-76
2023/04/20 09:52:01;;;;;;;8.15;6.35;;;;;;;11.95;44.75;98134.44;5044103;28;20039;-76
2023/04/20 09:54:27;;;;;;;6.57;5.90;;;;;;;11.97;45.16;98143.09;5032196;28;20037;-77
2023/04/20 09:56:53;;;;;;;7.50;6.50;;;;;;;11.46;46.35;98130.09;5039015;28;20123;-76
2023/04/20 09:59:20;;;;;;;6.75;6.10;;;;;;;11.26;44.97;98129.81;5035893;28;20045;-76
2023/04/20 10:01:45;;;;;;;7.20;6.47;;;;;;;11.15;46.14;98128.06;5038761;28;20078;-77
2023/04/20 10:04:13;;;;;;;9.38;6.75;;;;;;;11.07;48.17;98127.44;5035952;28;20495;-77
2023/04/20 10:06:39;;;;;;;8.98;7.10;;;;;;;11.08;48.13;98139.81;5022322;28;20465;-77
2023/04/20 10:09:07;;;;;;;8.15;7.35;;;;;;;10.84;49.29;98143.81;5002884;28;20132;-77
2023/04/20 10:11:36;;;;;;;8.38;7.57;;;;;;;11.36;48.68;98135.34;5030602;28;20021;-77
2023/04/20 10:14:17;;;;;;;9.48;8.35;;;;;;;11.53;49.60;98141.47;5027337;28;20044;-77
2023/04/20 10:16:44;;;;;;;8.95;8.05;;;;;;;11.57;49.92;98131.84;5025951;28;20553;-77
2023/04/20 10:19:09;;;;;;;10.15;8.35;;;;;;;11.38;49.98;98144.81;5020526;28;20063;-77
2023/04/20 10:21:48;;;;;;;12.48;10.73;;;;;;;10.40;52.08;98136.66;5023546;28;20077;-77
2023/04/20 10:24:14;;;;;;;12.68;9.73;;;;;;;10.33;53.29;98136.00;5027617;28;20051;-77
2023/04/20 10:26:44;;;;;;;9.98;8.68;;;;;;;10.54;52.63;98137.97;5027371;28;20108;-77
2023/04/20 10:29:11;;;;;;;12.20;9.90;;;;;;;10.17;53.73;98120.66;5008597;28;20067;-77
2023/04/20 10:31:40;;;;;;;10.70;9.23;;;;;;;10.45;52.74;98120.59;5037828;28;20081;-77
2023/04/20 10:34:07;;;;;;;11.30;9.52;;;;;;;10.25;54.06;98117.56;5037765;28;20037;-77
2023/04/20 10:36:36;;;;;;;13.45;11.07;;;;;;;9.84;56.65;98126.78;5039827;28;20487;-78
2023/04/20 10:39:15;;;;;;;14.50;11.52;;;;;;;9.79;57.27;98112.41;5013791;28;20047;-78
2023/04/20 10:42:10;;;;;;;12.45;10.35;;;;;;;9.70;56.55;98107.44;5031358;28;20073;-77
2023/04/20 10:44:49;;;;;;;15.07;11.70;;;;;;;9.49;58.33;98105.41;5024147;28;20061;-77
2023/04/20 10:47:15;;;;;;;10.85;9.30;;;;;;;9.75;57.03;98106.72;5038385;28;20041;-77
2023/04/20 10:49:40;;;;;;;11.85;9.68;;;;;;;9.90;56.96;98104.28;5025606;28;20075;-77
2023/04/20 10:52:06;;;;;;;15.52;11.95;;;;;;;9.78;57.03;98105.41;5054803;28;20553;-77
2023/04/20 10:54:38;;;;;;;11.00;9.32;;;;;;;9.72;57.19;98108.00;5008511;28;20472;-77
2023/04/20 10:57:05;;;;;;;18.55;14.90;;;;;;;9.75;56.68;98109.41;5033726;28;20045;-77
2023/04/20 10:59:31;;;;;;;10.10;8.63;;;;;;;9.83;56.88;98097.41;5041525;28;20017;-77
2023/04/20 11:02:00;;;;;;;9.68;8.50;;;;;;;9.52;58.92;98107.59;5029289;28;20098;-78
2023/04/20 11:04:32;;;;;;;8.75;7.85;;;;;;;9.62;58.37;98102.44;5035440;28;20030;-77
2023/04/20 11:07:06;;;;;;;8.48;7.50;;;;;;;9.66;58.89;98098.19;5030343;28;20111;-77
2023/04/20 11:09:33;;;;;;;7.90;7.05;;;;;;;9.11;58.82;98109.72;5008562;28;20398;-77
2023/04/20 11:12:02;;;;;;;8.35;7.32;;;;;;;9.38;59.75;98100.88;5024782;28;20116;-77
2023/04/20 11:14:28;;;;;;;8.65;7.85;;;;;;;9.40;59.34;98098.78;5046871;28;20037;-77
2023/04/20 11:16:54;;;;;;;8.00;7.20;;;;;;;9.63;58.89;98079.88;5030640;28;20024;-77
2023/04/20 11:19:27;;;;;;;8.50;7.70;;;;;;;9.24;60.21;98088.75;5023743;28;20487;-77
2023/04/20 11:21:53;;;;;;;8.95;8.00;;;;;;;9.64;59.69;98084.19;5060789;22;20068;-75
2023/04/20 11:24:26;;;;;;;13.65;8.05;;;;;;;9.67;60.12;98078.31;5000837;28;20120;-76
2023/04/20 11:26:55;;;;;;;8.80;8.00;;;;;;;9.80;59.27;98071.03;5021423;28;20041;-75
2023/04/20 11:29:35;;;;;;;8.85;8.05;;;;;;;9.60;59.94;98066.91;5017561;28;20025;-74
2023/04/20 11:32:06;;;;;;;9.50;8.60;;;;;;;9.29;59.38;98059.31;4997178;28;20046;-75
2023/04/20 11:34:32;;;;;;;9.20;8.30;;;;;;;9.72;60.54;98059.59;4996649;28;20030;-73
2023/04/20 11:37:09;;;;;;;9.65;8.65;;;;;;;9.65;59.62;98053.56;5000346;28;20069;-74
2023/04/20 11:39:35;;;;;;;8.48;7.68;;;;;;;9.61;59.69;98057.75;4987759;28;20041;-74
2023/04/20 11:42:00;;;;;;;9.73;7.63;;;;;;;9.62;60.46;98059.41;4996920;28;20022;-74
2023/04/20 11:44:26;;;;;;;8.95;8.15;;;;;;;9.97;59.64;98064.59;4985174;28;20034;-73